Time;durP1;ratioP1;P1;durP2;ratioP2;P2;SDS_P1;SDS_P2;PMS_P1;PMS_P2;Temp;Humidity;BMP_temperature;BMP_pressure;BME280_temperature;BME280_humidity;BME280_pressure;Samples;Min_cycle;Max_cycle;Signal;HPM_P1;HPM_P2
2023/01/04 00:00:09;;;;;;;1.83;0.95;;;12.30;87.20;;;;;;5044958;28;20435;-74
2023/01/04 00:02:34;;;;;;;2.35;1.17;;;12.30;87.20;;;;;;5046172;28;20126;-74
2023/01/04 00:05:00;;;;;;;2.15;0.90;;;12.30;87.00;;;;;;5046289;28;20071;-75
2023/01/04 00:07:28;;;;;;;3.42;1.25;;;12.30;87.30;;;;;;5046048;28;20403;-74
2023/01/04 00:09:54;;;;;;;2.30;1.20;;;12.30;87.20;;;;;;5045333;28;20802;-74
2023/01/04 00:12:19;;;;;;;1.88;1.10;;;12.30;87.20;;;;;;5047859;28;20036;-74
2023/01/04 00:14:45;;;;;;;1.73;1.05;;;12.30;87.30;;;;;;5047437;28;20029;-74
2023/01/04 00:17:11;;;;;;;2.30;1.15;;;12.30;87.60;;;;;;5045764;28;20032;-73
2023/01/04 00:19:36;;;;;;;2.35;1.10;;;12.30;87.50;;;;;;5047376;28;20033;-73
2023/01/04 00:22:02;;;;;;;3.08;1.20;;;12.30;87.50;;;;;;5046851;28;20543;-73
2023/01/04 00:24:27;;;;;;;2.45;1.00;;;12.30;87.50;;;;;;5045807;28;20064;-74
2023/01/04 00:26:53;;;;;;;1.90;1.10;;;12.30;87.80;;;;;;5046988;28;20483;-74
2023/01/04 00:29:18;;;;;;;2.28;1.20;;;12.30;88.00;;;;;;5045668;28;20045;-74
2023/01/04 00:31:44;;;;;;;2.80;1.00;;;12.30;88.00;;;;;;5046859;28;20037;-74
2023/01/04 00:34:13;;;;;;;1.40;1.00;;;12.20;87.80;;;;;;5046743;28;20025;-73
2023/01/04 00:36:39;;;;;;;1.88;1.10;;;12.30;87.30;;;;;;5046748;28;20025;-73
2023/01/04 00:39:08;;;;;;;1.42;0.93;;;12.30;87.60;;;;;;5047133;28;20547;-73
2023/01/04 00:41:53;;;;;;;1.55;1.00;;;12.30;87.60;;;;;;5046506;28;20021;-73
2023/01/04 00:44:20;;;;;;;2.95;0.98;;;12.30;87.60;;;;;;5046652;28;20187;-74
2023/01/04 00:46:46;;;;;;;3.63;1.10;;;12.30;87.70;;;;;;5046791;28;20025;-73
2023/01/04 00:49:12;;;;;;;1.55;0.90;;;12.30;87.80;;;;;;5045096;28;20037;-74
2023/01/04 00:51:40;;;;;;;2.05;1.13;;;12.30;87.80;;;;;;5045143;28;20029;-74
2023/01/04 00:54:11;;;;;;;2.30;1.20;;;12.30;88.10;;;;;;5045153;28;20063;-74
2023/01/04 00:56:36;;;;;;;3.60;1.10;;;12.20;88.30;;;;;;5046711;28;20021;-75
2023/01/04 00:59:03;;;;;;;1.77;1.00;;;12.20;87.30;;;;;;5046437;28;20059;-74
2023/01/04 01:01:30;;;;;;;1.77;1.00;;;12.20;87.90;;;;;;5046109;28;20033;-74
2023/01/04 01:03:58;;;;;;;3.90;1.23;;;12.30;88.00;;;;;;5046427;28;20025;-73
2023/01/04 01:06:25;;;;;;;2.53;0.95;;;12.20;87.40;;;;;;5045112;28;20507;-74
2023/01/04 01:08:51;;;;;;;1.88;1.00;;;12.30;87.90;;;;;;5046133;28;20029;-74
2023/01/04 01:11:17;;;;;;;2.05;0.90;;;12.20;88.30;;;;;;5045727;28;20087;-74
2023/01/04 01:13:43;;;;;;;1.42;0.90;;;12.20;88.70;;;;;;5044764;28;20053;-74
2023/01/04 01:16:14;;;;;;;3.17;1.35;;;12.20;88.60;;;;;;5046226;28;20029;-74
2023/01/04 01:18:41;;;;;;;1.88;0.90;;;12.20;88.30;;;;;;5046341;28;20033;-75
2023/01/04 01:21:10;;;;;;;2.65;1.00;;;12.20;88.20;;;;;;5045656;28;20108;-73
2023/01/04 01:23:35;;;;;;;2.17;1.10;;;12.30;88.20;;;;;;5044716;28;20029;-74
2023/01/04 01:26:03;;;;;;;1.60;0.98;;;12.20;87.80;;;;;;5046001;28;20108;-74
2023/01/04 01:28:28;;;;;;;1.63;1.00;;;12.30;87.90;;;;;;5036818;28;20175;-73
2023/01/04 01:30:54;;;;;;;1.67;0.88;;;12.20;87.70;;;;;;5026041;28;20450;-76
2023/01/04 01:33:20;;;;;;;1.55;0.90;;;12.20;87.40;;;;;;5025798;28;20509;-73
2023/01/04 01:35:45;;;;;;;2.17;1.00;;;12.30;88.10;;;;;;5026250;28;20156;-75
2023/01/04 01:38:11;;;;;;;1.52;1.00;;;12.20;88.20;;;;;;5024386;28;20038;-74
2023/01/04 01:40:43;;;;;;;1.92;0.90;;;12.20;88.10;;;;;;5025660;28;20527;-73
2023/01/04 01:43:17;;;;;;;2.33;1.10;;;12.20;87.60;;;;;;5025927;28;20602;-74
2023/01/04 01:45:45;;;;;;;2.22;0.93;;;12.20;87.50;;;;;;5024058;28;20025;-74
2023/01/04 01:48:19;;;;;;;2.42;1.00;;;12.20;87.40;;;;;;5024266;28;20036;-73
2023/01/04 01:50:55;;;;;;;1.75;0.90;;;12.20;87.60;;;;;;5025331;28;20084;-76
2023/01/04 01:53:24;;;;;;;2.47;0.80;;;12.20;87.80;;;;;;5024321;28;20487;-74
2023/01/04 01:55:51;;;;;;;1.98;0.90;;;12.20;87.60;;;;;;5024214;28;20026;-75
2023/01/04 01:58:29;;;;;;;2.30;0.80;;;12.20;87.50;;;;;;5025507;28;20132;-74
2023/01/04 02:00:54;;;;;;;2.45;0.90;;;12.20;87.50;;;;;;5024263;28;20044;-73
2023/01/04 02:03:22;;;;;;;2.35;1.00;;;12.20;87.20;;;;;;5024041;28;20025;-75
2023/01/04 02:05:52;;;;;;;2.22;1.00;;;12.20;87.10;;;;;;5024242;28;20037;-74
2023/01/04 02:08:21;;;;;;;1.65;0.85;;;12.20;87.70;;;;;;5025436;28;20036;-74
2023/01/04 02:10:47;;;;;;;3.15;1.10;;;12.20;87.10;;;;;;5023892;28;20034;-74
2023/01/04 02:13:17;;;;;;;2.50;1.13;;;12.20;87.70;;;;;;5024023;28;20021;-73
2023/01/04 02:16:01;;;;;;;1.85;0.80;;;12.20;87.00;;;;;;5025224;28;20035;-74
2023/01/04 02:18:35;;;;;;;2.95;1.10;;;12.20;87.50;;;;;;5024170;28;20037;-74
2023/01/04 02:21:12;;;;;;;1.40;0.98;;;12.30;87.60;;;;;;5023941;28;20186;-75
2023/01/04 02:24:11;;;;;;;1.80;0.90;;;12.20;87.30;;;;;;5025716;28;20514;-73
2023/01/04 02:27:20;;;;;;;3.15;0.90;;;12.20;87.30;;;;;;5024193;28;20029;-74
2023/01/04 02:30:14;;;;;;;1.93;0.83;;;12.20;87.40;;;;;;5025492;28;20033;-74
2023/01/04 02:32:58;;;;;;;1.40;0.70;;;12.20;87.60;;;;;;5024888;28;20510;-74
2023/01/04 02:35:47;;;;;;;1.65;0.80;;;12.20;88.60;;;;;;5025303;28;20361;-73
2023/01/04 02:38:26;;;;;;;1.85;1.00;;;12.20;87.80;;;;;;5025243;28;20035;-74
2023/01/04 02:41:15;;;;;;;1.58;0.80;;;12.20;87.80;;;;;;5023635;28;20026;-74
2023/01/04 02:46:54;;;;;;;3.55;1.38;;;12.20;87.70;;;;;;5025725;28;20089;-73
2023/01/04 02:52:04;;;;;;;2.03;0.90;;;12.10;87.90;;;;;;5025170;28;20056;-73
2023/01/04 02:54:31;;;;;;;1.23;0.73;;;12.20;87.90;;;;;;5024968;28;20068;-75
2023/01/04 02:57:10;;;;;;;1.25;0.73;;;12.20;87.80;;;;;;5024734;28;20025;-74
2023/01/04 02:59:49;;;;;;;1.98;0.90;;;12.20;87.70;;;;;;5027215;28;20025;-74
2023/01/04 03:08:37;;;;;;;2.78;0.98;;;12.20;88.00;;;;;;5028559;28;20171;-74
2023/01/04 03:14:18;;;;;;;3.97;0.90;;;12.10;88.00;;;;;;5028386;28;20055;-73
2023/01/04 03:16:45;;;;;;;2.13;0.90;;;12.20;88.10;;;;;;5028190;28;20029;-74
2023/01/04 03:19:13;;;;;;;2.85;0.90;;;12.20;88.50;;;;;;5027851;28;20345;-74
2023/01/04 03:21:43;;;;;;;1.95;0.90;;;12.20;88.40;;;;;;5027699;28;20275;-74
2023/01/04 03:36:18;;;;;;;1.95;0.90;;;12.20;88.80;;;;;;5028332;28;20089;-74
2023/01/04 03:48:30;;;;;;;1.60;0.73;;;12.20;88.60;;;;;;4966925;28;20050;-74
2023/01/04 03:51:13;;;;;;;2.00;0.80;;;12.20;88.70;;;;;;4950159;28;20037;-74
2023/01/04 03:53:58;;;;;;;2.08;0.70;;;12.20;88.80;;;;;;5011982;28;20041;-75
2023/01/04 03:56:25;;;;;;;0.80;0.63;;;12.20;88.70;;;;;;5036614;28;20025;-73
2023/01/04 03:58:51;;;;;;;1.50;0.80;;;12.20;88.90;;;;;;5037999;28;20032;-74
2023/01/04 04:01:19;;;;;;;2.10;0.95;;;12.20;88.90;;;;;;5047370;28;20029;-75
2023/01/04 04:09:12;;;;;;;1.58;0.70;;;12.20;88.80;;;;;;5046955;28;20396;-74
2023/01/04 04:11:38;;;;;;;1.92;0.80;;;12.20;88.70;;;;;;5045898;28;20482;-73
2023/01/04 04:14:03;;;;;;;1.30;0.80;;;12.20;89.00;;;;;;5047548;28;20029;-73
2023/01/04 04:16:29;;;;;;;1.63;0.70;;;12.20;89.00;;;;;;5047284;28;20090;-74
2023/01/04 04:18:55;;;;;;;3.88;0.75;;;12.20;89.60;;;;;;5045929;28;20119;-74
2023/01/04 04:21:20;;;;;;;6.80;1.00;;;12.20;89.20;;;;;;5046939;28;20036;-73
2023/01/04 04:23:46;;;;;;;1.73;0.70;;;12.20;89.30;;;;;;5047351;28;20060;-74
2023/01/04 04:26:11;;;;;;;1.00;0.70;;;12.20;89.30;;;;;;5046997;28;20286;-74
2023/01/04 04:28:38;;;;;;;1.20;0.70;;;12.20;89.30;;;;;;5047195;28;20043;-75
2023/01/04 04:31:04;;;;;;;1.25;0.80;;;12.10;89.30;;;;;;5046496;28;20072;-74
2023/01/04 04:33:29;;;;;;;1.55;0.70;;;12.20;89.10;;;;;;5045716;28;20056;-74
2023/01/04 04:35:55;;;;;;;1.77;0.73;;;12.20;89.40;;;;;;5046924;28;20075;-74
2023/01/04 04:38:21;;;;;;;1.90;0.77;;;12.20;89.10;;;;;;5046834;28;20087;-74
2023/01/04 04:43:33;;;;;;;2.28;0.70;;;12.20;89.30;;;;;;5047218;28;20125;-75
2023/01/04 04:45:59;;;;;;;1.95;0.80;;;12.20;89.20;;;;;;5046860;28;20557;-74
2023/01/04 04:48:25;;;;;;;1.33;0.70;;;12.20;89.40;;;;;;5045366;28;20073;-74
2023/01/04 04:50:50;;;;;;;1.92;0.82;;;12.20;89.30;;;;;;5044998;28;20118;-75
2023/01/04 04:53:16;;;;;;;1.20;0.65;;;12.20;89.30;;;;;;5045310;28;20025;-73
2023/01/04 04:55:41;;;;;;;3.08;0.95;;;12.20;89.40;;;;;;5046592;28;20424;-75
2023/01/04 04:58:07;;;;;;;0.80;0.70;;;12.20;89.50;;;;;;5046362;28;20495;-74
2023/01/04 05:00:32;;;;;;;1.08;0.60;;;12.20;89.20;;;;;;5046315;28;20108;-74
2023/01/04 05:02:59;;;;;;;2.13;0.70;;;12.20;89.30;;;;;;5046015;28;20029;-73
2023/01/04 05:05:24;;;;;;;1.90;0.70;;;12.20;89.30;;;;;;5046255;28;20045;-74
2023/01/04 05:07:50;;;;;;;1.98;0.90;;;12.20;89.40;;;;;;5044887;28;20025;-74
2023/01/04 05:10:16;;;;;;;1.42;0.68;;;12.20;89.40;;;;;;5045040;28;20469;-74
2023/01/04 05:12:59;;;;;;;2.10;0.80;;;12.20;89.30;;;;;;5044553;28;20032;-76
2023/01/04 05:15:35;;;;;;;1.50;0.63;;;12.20;89.40;;;;;;5046602;28;20475;-73
2023/01/04 05:18:01;;;;;;;2.10;0.85;;;12.20;89.40;;;;;;5045995;28;20120;-74
2023/01/04 05:20:27;;;;;;;1.58;0.60;;;12.20;89.50;;;;;;5044377;28;20140;-75
2023/01/04 05:22:52;;;;;;;1.05;0.57;;;12.20;89.50;;;;;;5047551;28;20024;-73
2023/01/04 05:25:18;;;;;;;1.70;0.80;;;12.20;89.40;;;;;;5045288;28;20456;-75
2023/01/04 05:27:44;;;;;;;0.63;0.50;;;12.20;89.50;;;;;;5046435;28;20033;-74
2023/01/04 05:32:56;;;;;;;1.88;0.77;;;12.20;89.60;;;;;;5045579;28;20036;-74
2023/01/04 05:35:21;;;;;;;0.90;0.70;;;12.20;89.50;;;;;;5045776;28;20029;-74
2023/01/04 05:37:47;;;;;;;0.55;0.40;;;12.20;89.60;;;;;;5045632;28;20521;-74
2023/01/04 05:40:12;;;;;;;2.70;0.70;;;12.20;89.70;;;;;;5045197;28;20044;-74
2023/01/04 05:42:38;;;;;;;0.75;0.50;;;12.20;89.60;;;;;;5044211;28;20036;-73
2023/01/04 05:45:04;;;;;;;1.17;0.60;;;12.20;89.70;;;;;;5045347;28;20037;-74
2023/01/04 05:47:29;;;;;;;0.90;0.60;;;12.20;89.70;;;;;;5036303;28;20405;-74
2023/01/04 05:49:55;;;;;;;1.45;0.68;;;12.20;89.70;;;;;;5025053;28;20036;-73
2023/01/04 05:52:21;;;;;;;1.02;0.60;;;12.20;89.70;;;;;;5025086;28;20032;-75
2023/01/04 05:54:47;;;;;;;1.00;0.70;;;12.10;89.70;;;;;;5029801;28;20430;-72
2023/01/04 05:57:13;;;;;;;0.60;0.50;;;12.20;89.80;;;;;;5042718;28;20025;-74
2023/01/04 05:59:38;;;;;;;1.13;0.50;;;12.20;89.80;;;;;;5030844;28;20037;-73
2023/01/04 06:02:05;;;;;;;1.20;0.60;;;12.20;89.70;;;;;;5024306;28;20030;-74
2023/01/04 06:04:30;;;;;;;2.42;0.57;;;12.20;89.70;;;;;;5025641;28;20036;-74
2023/01/04 06:06:56;;;;;;;1.40;0.60;;;12.20;89.60;;;;;;5026097;28;20017;-75
2023/01/04 06:09:23;;;;;;;1.38;0.65;;;12.10;89.70;;;;;;5026789;28;20048;-75
2023/01/04 06:11:49;;;;;;;1.15;0.50;;;12.20;89.70;;;;;;5043760;28;20040;-74
2023/01/04 06:14:14;;;;;;;1.67;0.70;;;12.10;89.70;;;;;;5045541;28;20483;-74
2023/01/04 06:16:40;;;;;;;1.00;0.50;;;12.20;89.80;;;;;;5044216;28;20032;-74
2023/01/04 06:19:05;;;;;;;1.15;0.70;;;12.10;89.70;;;;;;5043802;28;20469;-74
2023/01/04 06:21:31;;;;;;;2.45;0.52;;;12.20;89.80;;;;;;5040503;28;20602;-73
2023/01/04 06:23:56;;;;;;;0.82;0.50;;;12.10;89.80;;;;;;5042439;28;20104;-74
2023/01/04 06:26:22;;;;;;;1.02;0.60;;;12.10;90.10;;;;;;5044269;28;20040;-72
2023/01/04 06:28:47;;;;;;;2.03;0.65;;;12.20;89.80;;;;;;5042502;28;20078;-74
2023/01/04 06:31:13;;;;;;;1.92;0.65;;;12.10;89.80;;;;;;5043008;28;20029;-73
2023/01/04 06:33:39;;;;;;;0.77;0.60;;;12.20;90.00;;;;;;5044680;28;20021;-73
2023/01/04 06:36:05;;;;;;;1.00;0.50;;;12.20;89.90;;;;;;5039892;28;20025;-73
2023/01/04 06:38:31;;;;;;;0.80;0.50;;;12.10;89.80;;;;;;5045230;28;20036;-73
2023/01/04 06:40:57;;;;;;;1.25;0.60;;;12.20;89.80;;;;;;5036996;28;20033;-72
2023/01/04 06:43:24;;;;;;;0.70;0.55;;;12.10;89.90;;;;;;5026111;28;20029;-73
2023/01/04 06:45:49;;;;;;;2.88;0.60;;;12.20;89.90;;;;;;5037002;28;20033;-71
2023/01/04 06:48:15;;;;;;;3.35;0.70;;;12.20;90.00;;;;;;5048624;28;20414;-73
2023/01/04 06:50:41;;;;;;;0.80;0.60;;;12.10;90.00;;;;;;5046625;28;20475;-71
2023/01/04 06:53:07;;;;;;;2.97;0.50;;;12.10;90.00;;;;;;5027640;28;20029;-73
2023/01/04 06:55:32;;;;;;;1.33;0.73;;;12.10;90.00;;;;;;5026483;28;20029;-73
2023/01/04 06:57:57;;;;;;;1.50;0.70;;;12.20;90.00;;;;;;5028180;28;20040;-72
2023/01/04 07:00:25;;;;;;;1.00;0.60;;;12.10;90.00;;;;;;5028073;28;20138;-74
2023/01/04 07:02:50;;;;;;;1.65;0.65;;;12.20;90.00;;;;;;5027705;28;20060;-73
2023/01/04 07:05:16;;;;;;;1.20;0.50;;;12.20;90.00;;;;;;5027765;28;20029;-73
2023/01/04 07:07:42;;;;;;;1.20;0.68;;;12.10;90.00;;;;;;5026457;28;20473;-72
2023/01/04 07:10:08;;;;;;;0.80;0.52;;;12.10;90.00;;;;;;5027387;28;20029;-74
2023/01/04 07:12:33;;;;;;;1.50;0.50;;;12.20;90.00;;;;;;5027360;28;20520;-73
2023/01/04 07:14:59;;;;;;;1.92;0.90;;;12.10;90.00;;;;;;5027516;28;20026;-73
2023/01/04 07:17:25;;;;;;;1.23;0.57;;;12.20;90.00;;;;;;5038007;28;20029;-73
2023/01/04 07:19:51;;;;;;;1.30;0.80;;;12.20;90.00;;;;;;5045910;28;20128;-72
2023/01/04 07:22:16;;;;;;;0.90;0.55;;;12.10;90.00;;;;;;5047238;28;20033;-73
2023/01/04 07:24:42;;;;;;;0.57;0.50;;;12.20;90.10;;;;;;5047397;28;20028;-74
2023/01/04 07:27:09;;;;;;;1.90;0.60;;;12.20;90.10;;;;;;5047270;28;20039;-74
2023/01/04 07:29:35;;;;;;;0.95;0.60;;;12.10;90.10;;;;;;5047165;28;20084;-74
2023/01/04 07:32:01;;;;;;;0.70;0.50;;;12.20;90.10;;;;;;5045832;28;20036;-73
2023/01/04 07:34:28;;;;;;;0.95;0.60;;;12.10;90.00;;;;;;5045658;28;20033;-75
2023/01/04 07:36:54;;;;;;;0.75;0.50;;;12.10;90.00;;;;;;5046549;28;20025;-77
2023/01/04 07:39:20;;;;;;;0.57;0.50;;;12.20;90.10;;;;;;5046879;28;20403;-76
2023/01/04 07:41:47;;;;;;;0.98;0.50;;;12.20;90.10;;;;;;5046038;28;20031;-76
2023/01/04 07:44:12;;;;;;;4.88;1.20;;;12.10;90.10;;;;;;5045087;28;20060;-75
2023/01/04 07:46:38;;;;;;;1.27;0.70;;;12.20;90.10;;;;;;5046536;28;20463;-73
2023/01/04 07:49:04;;;;;;;1.02;0.60;;;12.10;90.10;;;;;;5046089;28;20112;-74
2023/01/04 07:51:31;;;;;;;0.80;0.60;;;12.20;90.10;;;;;;5046221;28;20047;-74
2023/01/04 07:53:57;;;;;;;1.38;0.70;;;12.10;90.10;;;;;;5044886;28;20025;-73
2023/01/04 07:56:22;;;;;;;0.68;0.60;;;12.10;90.10;;;;;;5045996;28;20036;-74
2023/01/04 07:58:48;;;;;;;0.60;0.52;;;12.20;90.10;;;;;;5045694;28;20494;-74
2023/01/04 08:01:16;;;;;;;1.33;0.73;;;12.10;90.10;;;;;;5047091;28;20039;-74
2023/01/04 08:03:43;;;;;;;0.52;0.50;;;12.10;90.10;;;;;;5041435;28;20414;-74
2023/01/04 08:06:11;;;;;;;2.28;1.20;;;12.10;90.10;;;;;;5045347;28;20035;-74
2023/01/04 08:08:36;;;;;;;0.70;0.70;;;12.10;90.10;;;;;;5046473;28;20032;-73
2023/01/04 08:11:08;;;;;;;1.00;0.60;;;12.10;90.10;;;;;;5045078;28;20029;-73
2023/01/04 08:13:33;;;;;;;1.10;0.55;;;12.10;90.10;;;;;;5046299;28;20097;-74
2023/01/04 08:15:59;;;;;;;0.50;0.50;;;12.10;90.10;;;;;;5046599;28;20123;-73
2023/01/04 08:18:25;;;;;;;6.10;0.80;;;12.10;90.10;;;;;;5044714;28;20131;-74
2023/01/04 08:21:01;;;;;;;1.90;0.80;;;12.10;90.10;;;;;;5039495;28;20205;-74
2023/01/04 08:23:27;;;;;;;0.52;0.52;;;12.10;90.20;;;;;;5026178;28;20060;-73
2023/01/04 08:25:52;;;;;;;0.85;0.63;;;12.10;90.10;;;;;;5025312;28;20049;-73
2023/01/04 08:28:18;;;;;;;0.70;0.50;;;12.10;90.20;;;;;;5025977;28;20484;-72
2023/01/04 08:30:43;;;;;;;0.60;0.50;;;12.10;90.20;;;;;;5024867;28;20037;-73
2023/01/04 08:33:13;;;;;;;0.50;0.50;;;12.10;90.20;;;;;;5026243;28;20476;-73
2023/01/04 08:35:39;;;;;;;0.63;0.63;;;12.10;90.20;;;;;;5026167;28;20033;-74
2023/01/04 08:38:04;;;;;;;0.70;0.47;;;12.20;90.20;;;;;;5025857;28;20419;-74
2023/01/04 08:40:30;;;;;;;1.45;0.65;;;12.10;90.20;;;;;;5026057;28;20033;-75
2023/01/04 08:42:55;;;;;;;0.60;0.60;;;12.10;90.20;;;;;;5025139;28;20029;-74
2023/01/04 08:45:21;;;;;;;1.90;0.60;;;12.10;90.20;;;;;;5024187;28;20487;-72
2023/01/04 08:47:46;;;;;;;2.10;0.60;;;12.10;90.20;;;;;;5023156;28;20087;-73
2023/01/04 08:50:15;;;;;;;2.05;0.50;;;12.10;90.20;;;;;;5023604;28;20045;-73
2023/01/04 08:52:41;;;;;;;0.77;0.60;;;12.10;90.20;;;;;;5026089;28;20020;-73
2023/01/04 08:55:07;;;;;;;1.17;0.70;;;12.10;90.10;;;;;;5026866;28;20029;-73
2023/01/04 08:57:34;;;;;;;1.33;0.60;;;12.10;90.20;;;;;;5025930;28;20026;-73
2023/01/04 08:59:59;;;;;;;0.90;0.60;;;12.10;90.20;;;;;;5026792;28;20030;-74
2023/01/04 09:02:26;;;;;;;0.73;0.60;;;12.10;90.20;;;;;;5029240;28;20396;-75
2023/01/04 09:04:58;;;;;;;1.90;0.70;;;12.10;90.20;;;;;;5032803;28;20028;-74
2023/01/04 09:07:24;;;;;;;1.00;0.60;;;12.10;90.20;;;;;;5031403;28;20064;-74
2023/01/04 09:09:50;;;;;;;1.73;0.60;;;12.10;90.20;;;;;;5031256;28;20076;-74
2023/01/04 09:12:15;;;;;;;1.58;0.50;;;12.10;90.20;;;;;;5032281;28;20553;-74
2023/01/04 09:14:41;;;;;;;0.55;0.50;;;12.10;90.30;;;;;;5032481;28;20028;-74
2023/01/04 09:17:06;;;;;;;1.33;0.70;;;12.10;90.30;;;;;;5032132;28;20017;-74
2023/01/04 09:19:32;;;;;;;0.43;0.43;;;12.10;90.30;;;;;;5030934;28;20480;-74
2023/01/04 09:21:57;;;;;;;0.63;0.50;;;12.10;90.30;;;;;;5032153;28;20021;-74
2023/01/04 09:24:23;;;;;;;1.52;0.70;;;12.20;90.30;;;;;;5031066;28;20484;-74
2023/01/04 09:26:49;;;;;;;1.13;0.60;;;12.10;90.30;;;;;;5032106;28;20039;-74
2023/01/04 09:29:14;;;;;;;0.70;0.68;;;12.10;90.30;;;;;;5032120;28;20487;-74
2023/01/04 09:31:40;;;;;;;1.00;0.60;;;12.10;90.30;;;;;;5030656;28;20067;-74
2023/01/04 09:34:05;;;;;;;0.77;0.50;;;12.10;90.30;;;;;;5030900;28;20045;-74
2023/01/04 09:36:31;;;;;;;0.57;0.50;;;12.10;90.30;;;;;;5032062;28;20018;-74
2023/01/04 09:38:56;;;;;;;0.90;0.60;;;12.10;90.30;;;;;;5032269;28;20038;-75
2023/01/04 09:41:29;;;;;;;0.52;0.50;;;12.10;90.30;;;;;;5030614;28;20014;-74
2023/01/04 09:44:10;;;;;;;0.80;0.52;;;12.10;90.30;;;;;;5032196;28;20327;-74
2023/01/04 09:46:57;;;;;;;0.70;0.60;;;12.10;90.30;;;;;;5031964;28;20025;-72
2023/01/04 09:49:29;;;;;;;0.65;0.50;;;12.10;90.30;;;;;;5031853;28;20084;-74
2023/01/04 09:52:03;;;;;;;1.05;0.60;;;12.10;90.30;;;;;;5030421;28;20422;-74
2023/01/04 09:54:49;;;;;;;0.70;0.60;;;12.10;90.30;;;;;;5031923;28;20029;-74
2023/01/04 09:57:27;;;;;;;0.50;0.50;;;12.10;90.30;;;;;;5030623;28;20025;-74
2023/01/04 09:59:58;;;;;;;0.77;0.60;;;12.10;90.30;;;;;;5031767;28;20033;-74
2023/01/04 10:02:32;;;;;;;0.93;0.68;;;12.10;90.30;;;;;;5030396;28;20031;-75
2023/01/04 10:05:00;;;;;;;1.80;0.60;;;12.10;90.30;;;;;;5031760;28;20492;-74
2023/01/04 10:07:29;;;;;;;0.80;0.50;;;12.10;90.30;;;;;;5031435;28;20022;-74
2023/01/04 10:09:56;;;;;;;0.70;0.57;;;12.10;90.30;;;;;;5031728;28;20114;-74
2023/01/04 10:12:31;;;;;;;0.80;0.70;;;12.10;90.40;;;;;;5031523;28;20101;-75
2023/01/04 10:15:14;;;;;;;0.50;0.50;;;12.10;90.30;;;;;;5031582;28;20040;-74
2023/01/04 10:18:16;;;;;;;1.20;0.50;;;12.20;90.40;;;;;;5031082;28;20104;-73
2023/01/04 10:21:10;;;;;;;0.47;0.47;;;12.10;90.40;;;;;;5031345;28;20091;-74
2023/01/04 10:23:57;;;;;;;0.50;0.50;;;12.10;90.40;;;;;;5031533;28;20029;-74
2023/01/04 10:26:47;;;;;;;2.08;0.90;;;12.10;90.40;;;;;;5031647;28;20111;-73
2023/01/04 10:29:41;;;;;;;0.63;0.55;;;12.10;90.40;;;;;;5030209;28;20029;-74
2023/01/04 10:32:16;;;;;;;0.88;0.65;;;12.20;90.40;;;;;;5030147;28;20022;-74
2023/01/04 10:34:44;;;;;;;0.60;0.45;;;12.10;90.40;;;;;;5031357;28;20013;-74
2023/01/04 10:37:20;;;;;;;0.50;0.50;;;12.10;90.40;;;;;;5031576;28;20531;-74
2023/01/04 10:39:50;;;;;;;1.17;0.60;;;12.10;90.40;;;;;;5031239;28;20025;-74
2023/01/04 10:42:24;;;;;;;0.32;0.32;;;12.20;90.40;;;;;;5031192;28;20026;-75
2023/01/04 10:44:52;;;;;;;0.88;0.60;;;12.10;90.40;;;;;;5030272;28;20032;-74
2023/01/04 10:47:45;;;;;;;0.40;0.40;;;12.10;90.40;;;;;;5031297;28;20029;-74
2023/01/04 10:50:21;;;;;;;0.43;0.40;;;12.10;90.40;;;;;;5031212;28;20069;-74
2023/01/04 10:52:54;;;;;;;0.40;0.40;;;12.20;90.50;;;;;;5031028;28;20024;-74
2023/01/04 10:55:32;;;;;;;0.68;0.60;;;12.10;90.40;;;;;;5030324;28;20025;-75
2023/01/04 10:58:08;;;;;;;0.82;0.50;;;12.10;90.60;;;;;;5031259;28;20033;-75
2023/01/04 11:00:44;;;;;;;0.88;0.55;;;12.10;90.40;;;;;;5029573;28;20365;-72
2023/01/04 11:03:19;;;;;;;0.63;0.45;;;12.20;90.40;;;;;;5031320;28;20168;-75
2023/01/04 11:06:01;;;;;;;0.70;0.45;;;12.10;90.40;;;;;;5031135;28;20080;-74
2023/01/04 11:08:31;;;;;;;0.63;0.50;;;12.10;90.40;;;;;;5031107;28;20045;-75
2023/01/04 11:11:04;;;;;;;0.50;0.40;;;12.10;90.40;;;;;;5030786;28;20108;-74
2023/01/04 11:13:30;;;;;;;0.30;0.30;;;12.10;90.40;;;;;;5031116;28;20056;-74
2023/01/04 11:15:56;;;;;;;1.30;0.80;;;12.10;90.40;;;;;;5030925;28;20061;-75
2023/01/04 11:18:22;;;;;;;0.50;0.50;;;12.10;90.40;;;;;;5029951;28;20427;-74
2023/01/04 11:20:48;;;;;;;0.73;0.50;;;12.10;90.40;;;;;;5033527;28;20071;-75
2023/01/04 11:23:16;;;;;;;0.60;0.40;;;12.10;90.40;;;;;;5033368;28;20032;-74
2023/01/04 11:26:05;;;;;;;1.23;0.52;;;12.10;90.40;;;;;;5033228;28;20480;-74
2023/01/04 11:28:40;;;;;;;0.70;0.52;;;12.10;90.40;;;;;;5033178;28;20458;-75
2023/01/04 11:31:21;;;;;;;1.38;0.55;;;12.10;90.40;;;;;;5034214;28;20030;-74
2023/01/04 11:34:07;;;;;;;1.25;0.40;;;12.10;90.40;;;;;;5033109;28;20025;-74
2023/01/04 11:36:37;;;;;;;0.40;0.35;;;12.10;90.40;;;;;;5033819;28;20484;-75
2023/01/04 11:39:16;;;;;;;0.85;0.40;;;12.10;90.40;;;;;;5034215;28;20549;-74
2023/01/04 11:41:53;;;;;;;0.82;0.70;;;12.10;90.40;;;;;;5034132;28;20025;-74
2023/01/04 11:44:19;;;;;;;0.50;0.45;;;12.20;90.50;;;;;;5033296;28;20025;-75
2023/01/04 11:46:44;;;;;;;0.70;0.50;;;12.10;90.50;;;;;;5032809;28;20028;-74
2023/01/04 11:49:19;;;;;;;0.60;0.50;;;12.10;90.50;;;;;;5033941;28;20112;-75
2023/01/04 11:51:45;;;;;;;0.40;0.40;;;12.10;90.40;;;;;;5032539;28;20064;-74
2023/01/04 11:54:13;;;;;;;0.73;0.50;;;12.10;90.40;;;;;;5034145;28;20073;-74
2023/01/04 11:56:56;;;;;;;1.00;0.50;;;12.10;90.50;;;;;;5033931;28;20499;-74
2023/01/04 11:59:21;;;;;;;1.02;0.50;;;12.10;90.40;;;;;;5032671;28;20037;-74
2023/01/04 12:01:50;;;;;;;5.93;0.77;;;12.10;90.40;;;;;;5033667;28;20536;-74
2023/01/04 12:04:20;;;;;;;0.50;0.50;;;12.10;90.50;;;;;;5032684;28;20399;-75
2023/01/04 12:07:00;;;;;;;0.40;0.40;;;12.10;90.50;;;;;;5033753;28;20033;-74
2023/01/04 12:09:29;;;;;;;0.50;0.50;;;12.10;90.50;;;;;;5033664;28;20395;-74
2023/01/04 12:11:57;;;;;;;0.80;0.50;;;12.10;90.40;;;;;;5033403;28;20021;-75
2023/01/04 12:14:34;;;;;;;0.40;0.40;;;12.10;90.50;;;;;;5033770;28;20056;-75
2023/01/04 12:17:11;;;;;;;0.50;0.50;;;12.20;90.50;;;;;;5032109;28;20022;-75
2023/01/04 12:19:41;;;;;;;0.60;0.50;;;12.10;90.50;;;;;;5032271;28;20562;-74
2023/01/04 12:22:32;;;;;;;0.80;0.50;;;12.10;90.50;;;;;;5033368;28;20033;-73
2023/01/04 12:24:58;;;;;;;0.50;0.40;;;12.10;90.50;;;;;;5032048;28;20032;-74
2023/01/04 12:27:24;;;;;;;0.38;0.38;;;12.10;90.50;;;;;;5031639;28;20035;-71
2023/01/04 12:29:55;;;;;;;0.75;0.57;;;12.10;90.50;;;;;;5025623;28;20025;-72
2023/01/04 12:32:26;;;;;;;0.82;0.50;;;12.10;90.50;;;;;;5026299;28;20147;-77
2023/01/04 12:34:53;;;;;;;0.65;0.50;;;12.10;90.50;;;;;;5033342;28;20402;-72
2023/01/04 12:37:37;;;;;;;0.80;0.50;;;12.10;90.50;;;;;;5046539;28;20585;-72
2023/01/04 12:40:23;;;;;;;1.85;0.65;;;12.20;90.60;;;;;;5046408;28;20025;-72
2023/01/04 12:43:35;;;;;;;0.40;0.40;;;12.20;90.50;;;;;;5044580;28;20842;-72
2023/01/04 12:49:26;;;;;;;0.50;0.50;;;12.10;90.50;;;;;;4964509;28;20045;-71
2023/01/04 12:52:21;;;;;;;17.52;1.25;;;12.20;90.50;;;;;;5039970;28;20371;-72
2023/01/04 12:54:59;;;;;;;1.35;0.75;;;12.10;90.50;;;;;;5024851;28;20030;-73
2023/01/04 12:57:33;;;;;;;0.50;0.50;;;12.10;90.50;;;;;;5024901;28;20022;-72
2023/01/04 12:59:59;;;;;;;0.60;0.57;;;12.10;90.50;;;;;;5026494;28;20096;-74
2023/01/04 13:02:43;;;;;;;0.60;0.60;;;12.10;90.50;;;;;;5024519;28;20295;-71
2023/01/04 13:05:18;;;;;;;0.55;0.50;;;12.10;90.60;;;;;;5026324;28;20025;-71
2023/01/04 13:07:58;;;;;;;0.75;0.50;;;12.10;90.50;;;;;;5025731;28;20033;-72
2023/01/04 13:10:45;;;;;;;0.73;0.60;;;12.10;90.50;;;;;;5024169;28;20396;-74
2023/01/04 13:13:26;;;;;;;0.60;0.60;;;12.10;90.50;;;;;;5024193;28;20086;-73
2023/01/04 13:16:13;;;;;;;0.70;0.63;;;12.10;90.50;;;;;;5025557;28;20026;-75
2023/01/04 13:19:00;;;;;;;1.02;0.60;;;12.10;90.50;;;;;;5024096;28;20561;-75
2023/01/04 13:21:44;;;;;;;0.73;0.50;;;12.10;90.50;;;;;;5024582;28;20037;-75
2023/01/04 13:24:21;;;;;;;0.63;0.50;;;12.00;90.50;;;;;;5022602;28;20036;-74
2023/01/04 13:26:47;;;;;;;0.50;0.50;;;12.20;90.50;;;;;;5023815;28;20025;-72
2023/01/04 13:29:29;;;;;;;0.60;0.60;;;12.10;90.50;;;;;;5023462;28;20034;-73
2023/01/04 13:32:01;;;;;;;0.75;0.70;;;12.10;90.50;;;;;;5025236;28;20025;-72
2023/01/04 13:34:31;;;;;;;0.60;0.60;;;12.10;90.50;;;;;;5025352;28;20292;-73
2023/01/04 13:37:14;;;;;;;0.60;0.60;;;12.10;90.50;;;;;;5024004;28;20025;-72
2023/01/04 13:39:48;;;;;;;1.15;0.70;;;12.20;90.50;;;;;;5023897;28;20597;-71
2023/01/04 13:42:23;;;;;;;0.70;0.50;;;12.10;90.50;;;;;;5024589;28;20120;-71
2023/01/04 13:45:21;;;;;;;0.60;0.60;;;12.10;90.50;;;;;;5023975;28;20629;-72
2023/01/04 13:47:54;;;;;;;0.52;0.50;;;12.20;90.50;;;;;;5024021;28;20043;-72
2023/01/04 13:50:31;;;;;;;0.50;0.50;;;12.10;90.50;;;;;;5028536;28;20033;-71
2023/01/04 13:52:56;;;;;;;1.35;0.68;;;12.20;90.60;;;;;;5043044;28;20028;-72
2023/01/04 13:55:26;;;;;;;0.82;0.50;;;12.10;90.50;;;;;;5040435;28;20033;-74